createdAt,value
2018-05-04T00:01:04.073Z,5.00
2018-05-04T00:03:48.639Z,4.63
2018-05-04T00:06:17.113Z,4.90
2018-05-04T00:08:45.815Z,4.87
2018-05-04T00:11:34.171Z,5.20
2018-05-04T00:14:07.735Z,5.13
2018-05-04T00:16:37.337Z,4.90
2018-05-04T00:19:12.158Z,4.70
2018-05-04T00:21:43.027Z,4.87
2018-05-04T00:24:14.781Z,5.17
2018-05-04T00:26:43.444Z,4.43
2018-05-04T00:29:23.762Z,4.60
2018-05-04T00:32:02.600Z,4.30
2018-05-04T00:34:40.237Z,4.57
2018-05-04T00:37:11.376Z,4.33
2018-05-04T00:39:49.573Z,4.83
2018-05-04T00:42:28.134Z,4.53
2018-05-04T00:44:59.866Z,4.90
2018-05-04T00:47:31.638Z,4.60
2018-05-04T00:50:02.478Z,4.80
2018-05-04T00:52:40.944Z,4.30
2018-05-04T00:55:19.556Z,4.70
2018-05-04T00:58:08.208Z,4.90
2018-05-04T01:00:35.946Z,4.80
2018-05-04T01:03:08.910Z,4.43
2018-05-04T01:05:37.853Z,4.20
2018-05-04T01:08:11.864Z,4.80
2018-05-04T01:10:49.427Z,4.30
2018-05-04T01:13:20.547Z,4.87
2018-05-04T01:15:55.071Z,5.40
2018-05-04T01:18:29.619Z,4.77
2018-05-04T01:20:57.124Z,4.53
2018-05-04T01:23:30.354Z,4.67
2018-05-04T01:26:02.187Z,5.17
2018-05-04T01:28:31.729Z,4.77
2018-05-04T01:31:00.524Z,4.60
2018-05-04T01:33:42.549Z,4.50
2018-05-04T01:36:10.978Z,4.60
2018-05-04T01:38:47.099Z,4.70
2018-05-04T01:41:18.193Z,5.00
2018-05-04T01:43:49.091Z,4.60
2018-05-04T01:46:19.607Z,4.63
2018-05-04T01:48:51.630Z,4.57
2018-05-04T01:51:29.824Z,5.13
2018-05-04T01:59:57.281Z,4.83
2018-05-04T02:05:23.938Z,4.97
2018-05-04T02:10:56.538Z,4.87
2018-05-04T02:13:26.225Z,5.20
2018-05-04T02:16:01.140Z,5.10
2018-05-04T02:18:40.775Z,4.93
2018-05-04T02:21:21.064Z,4.90
2018-05-04T02:23:54.447Z,4.90
2018-05-04T02:26:40.253Z,5.00
2018-05-04T02:29:08.719Z,5.00
2018-05-04T02:31:41.393Z,5.10
2018-05-04T02:34:16.094Z,5.10
2018-05-04T02:36:47.065Z,4.67
2018-05-04T02:39:14.579Z,4.63
2018-05-04T02:41:43.820Z,4.80
2018-05-04T02:44:11.327Z,5.00
2018-05-04T02:46:47.375Z,5.00
2018-05-04T02:49:16.948Z,5.50
2018-05-04T02:51:46.563Z,5.63
2018-05-04T02:54:26.585Z,4.87
2018-05-04T02:57:12.157Z,5.20
2018-05-04T02:59:40.891Z,5.33
2018-05-04T03:02:15.069Z,4.90
2018-05-04T03:04:54.515Z,5.47
2018-05-04T03:10:14.969Z,4.70
2018-05-04T03:12:44.553Z,5.10
2018-05-04T03:15:15.711Z,4.90
2018-05-04T03:17:48.413Z,5.13
2018-05-04T03:20:17.999Z,5.20
2018-05-04T03:22:48.853Z,4.80
2018-05-04T03:25:17.517Z,5.37
2018-05-04T03:27:50.754Z,5.23
2018-05-04T03:30:35.088Z,5.37
2018-05-04T03:33:15.809Z,5.50
2018-05-04T03:35:57.045Z,5.23
2018-05-04T03:38:26.737Z,5.57
2018-05-04T03:41:05.833Z,5.43
2018-05-04T03:43:37.014Z,5.67
2018-05-04T03:46:17.333Z,5.67
2018-05-04T03:48:46.059Z,5.43
2018-05-04T03:51:32.795Z,5.57
2018-05-04T03:54:06.164Z,5.53
2018-05-04T03:56:37.309Z,5.57
2018-05-04T03:59:21.493Z,5.73
2018-05-04T04:04:46.069Z,5.57
2018-05-04T04:07:23.636Z,6.03
2018-05-04T04:10:03.079Z,5.43
2018-05-04T04:15:23.532Z,5.97
2018-05-04T04:17:54.363Z,6.00
2018-05-04T04:20:32.854Z,6.57
2018-05-04T04:23:04.613Z,6.50
2018-05-04T04:25:44.039Z,6.10
2018-05-04T04:28:30.514Z,5.60
2018-05-04T04:31:09.391Z,5.60
2018-05-04T04:33:48.808Z,5.77
2018-05-04T04:36:28.295Z,6.27
2018-05-04T04:39:03.093Z,5.77
2018-05-04T04:41:31.811Z,5.80
2018-05-04T04:44:00.489Z,5.73
2018-05-04T04:46:47.055Z,5.53
2018-05-04T04:49:23.385Z,5.70
2018-05-04T04:52:02.761Z,5.83
2018-05-04T04:54:34.863Z,5.83
2018-05-04T05:00:02.622Z,5.70
2018-05-04T05:02:30.107Z,5.60
2018-05-04T05:04:57.600Z,5.87
2018-05-04T05:07:25.102Z,6.00
2018-05-04T05:09:52.777Z,5.67
2018-05-04T05:12:20.285Z,6.50
2018-05-04T05:14:48.937Z,5.93
2018-05-04T05:17:29.239Z,6.23
2018-05-04T05:20:12.060Z,6.13
2018-05-04T05:22:47.819Z,6.40
2018-05-04T05:25:15.359Z,7.60
2018-05-04T05:27:48.621Z,7.10
2018-05-04T05:30:18.231Z,7.20
2018-05-04T05:32:47.827Z,7.07
2018-05-04T05:35:20.531Z,5.70
2018-05-04T05:38:07.067Z,6.87
2018-05-04T05:40:34.823Z,6.07
2018-05-04T05:43:07.148Z,7.23
2018-05-04T05:45:44.735Z,7.10
2018-05-04T05:48:12.237Z,6.67
2018-05-04T05:50:45.525Z,7.17
2018-05-04T05:56:11.488Z,7.33
2018-05-04T05:58:40.167Z,7.53
2018-05-04T06:01:07.916Z,7.97
2018-05-04T06:03:43.353Z,6.97
2018-05-04T06:06:18.151Z,7.30
2018-05-04T06:08:51.192Z,6.37
2018-05-04T06:11:33.003Z,7.07
2018-05-04T06:14:03.317Z,6.53
2018-05-04T06:16:37.775Z,6.67
2018-05-04T06:19:10.825Z,6.77
2018-05-04T06:22:02.292Z,6.50
2018-05-04T06:24:31.855Z,7.83
2018-05-04T06:27:06.049Z,7.07
2018-05-04T06:32:31.390Z,7.10
2018-05-04T06:35:12.299Z,7.50
2018-05-04T06:38:01.682Z,8.10
2018-05-04T06:40:35.839Z,8.47
2018-05-04T06:43:09.728Z,8.40
2018-05-04T06:45:40.701Z,7.63
2018-05-04T06:48:12.367Z,8.90
2018-05-04T06:51:03.818Z,8.83
2018-05-04T06:53:33.401Z,8.83
2018-05-04T06:56:06.973Z,9.23
2018-05-04T06:58:37.834Z,9.70
2018-05-04T07:04:05.896Z,9.43
2018-05-04T07:06:38.914Z,10.03
2018-05-04T07:12:01.169Z,10.23
2018-05-04T07:14:31.411Z,9.97
2018-05-04T07:17:03.148Z,9.87
2018-05-04T07:19:30.659Z,10.17
2018-05-04T07:22:16.128Z,10.20
2018-05-04T07:24:44.587Z,9.83
2018-05-04T07:27:23.702Z,10.43
2018-05-04T07:33:02.503Z,10.17
2018-05-04T07:35:41.371Z,10.07
2018-05-04T07:38:23.835Z,11.07
2018-05-04T07:40:51.381Z,10.93
2018-05-04T07:43:19.115Z,10.00
2018-05-04T07:45:48.723Z,9.90
2018-05-04T07:48:34.659Z,10.80
2018-05-04T07:51:13.721Z,10.90
2018-05-04T07:53:43.407Z,10.33
2018-05-04T07:56:16.027Z,10.17
2018-05-04T07:58:58.813Z,10.47
2018-05-04T08:01:27.572Z,9.97
2018-05-04T08:03:55.301Z,10.30
2018-05-04T08:06:42.047Z,9.90
2018-05-04T08:09:10.509Z,10.20
2018-05-04T08:11:42.875Z,9.90
2018-05-04T08:14:22.267Z,10.10
2018-05-04T08:16:51.007Z,9.33
2018-05-04T08:22:15.178Z,9.50
2018-05-04T08:24:43.792Z,10.23
2018-05-04T08:27:11.301Z,10.27
2018-05-04T08:29:39.020Z,10.87
2018-05-04T08:32:11.071Z,10.80
2018-05-04T08:34:39.991Z,10.70
2018-05-04T08:37:17.946Z,9.90
2018-05-04T08:39:45.754Z,10.27
2018-05-04T08:42:19.901Z,10.43
2018-05-04T08:44:52.337Z,9.50
2018-05-04T08:47:24.393Z,9.50
2018-05-04T08:50:00.461Z,10.70
2018-05-04T08:52:37.406Z,10.60
2018-05-04T08:55:08.270Z,10.20
2018-05-04T08:57:39.129Z,9.80
2018-05-04T09:00:07.467Z,9.43
2018-05-04T09:02:37.093Z,9.33
2018-05-04T09:05:16.896Z,8.93
2018-05-04T09:07:50.400Z,8.87
2018-05-04T09:10:22.225Z,8.70
2018-05-04T09:12:53.646Z,9.40
2018-05-04T09:15:35.210Z,8.50
2018-05-04T09:18:02.719Z,9.50
2018-05-04T09:20:32.003Z,9.50
2018-05-04T09:23:00.715Z,9.23
2018-05-04T09:25:34.271Z,9.23
2018-05-04T09:28:05.467Z,9.33
2018-05-04T09:30:44.539Z,8.53
2018-05-04T09:33:22.147Z,9.50
2018-05-04T09:35:51.777Z,8.40
2018-05-04T09:38:30.521Z,8.43
2018-05-04T09:43:52.874Z,7.83
2018-05-04T09:46:27.031Z,9.20
2018-05-04T09:48:55.770Z,8.63
2018-05-04T09:51:30.256Z,8.93
2018-05-04T09:54:00.821Z,8.30
2018-05-04T09:56:29.516Z,8.83
2018-05-04T09:59:06.788Z,9.03
2018-05-04T10:01:37.625Z,9.30
2018-05-04T10:04:10.913Z,9.33
2018-05-04T10:06:55.211Z,10.23
2018-05-04T10:09:26.748Z,9.63
2018-05-04T10:12:00.022Z,9.57
2018-05-04T10:14:33.611Z,10.20
2018-05-04T10:17:11.202Z,10.27
2018-05-04T10:19:50.637Z,10.47
2018-05-04T10:25:25.143Z,10.23
2018-05-04T10:27:53.610Z,10.47
2018-05-04T10:30:47.821Z,9.97
2018-05-04T10:33:40.151Z,9.70
2018-05-04T10:36:20.114Z,10.50
2018-05-04T10:38:59.956Z,10.90
2018-05-04T10:41:43.313Z,10.60
2018-05-04T10:44:24.898Z,9.90
2018-05-04T10:46:53.333Z,11.13
2018-05-04T10:49:21.995Z,10.30
2018-05-04T10:51:55.308Z,10.30
2018-05-04T10:54:23.988Z,9.33
2018-05-04T10:56:52.657Z,9.63
2018-05-04T10:59:32.103Z,10.10
2018-05-04T11:02:10.646Z,10.23
2018-05-04T11:04:58.720Z,10.47
2018-05-04T11:07:40.499Z,10.57
2018-05-04T11:10:13.594Z,10.00
2018-05-04T11:12:45.319Z,10.03
2018-05-04T11:15:22.603Z,9.80
2018-05-04T11:17:54.999Z,10.53
2018-05-04T11:23:31.307Z,10.33
2018-05-04T11:25:59.769Z,9.80
2018-05-04T11:28:30.891Z,9.23
2018-05-04T11:31:01.718Z,10.03
2018-05-04T11:33:40.859Z,10.37
2018-05-04T11:36:19.348Z,10.13
2018-05-04T11:39:07.457Z,9.37
2018-05-04T11:41:37.025Z,10.33
2018-05-04T11:44:08.503Z,9.63
2018-05-04T11:46:37.172Z,9.63
2018-05-04T11:49:09.235Z,10.80
2018-05-04T11:51:40.068Z,10.27
2018-05-04T11:54:24.062Z,10.33
2018-05-04T11:57:13.131Z,12.20
2018-05-04T11:59:53.101Z,9.97
2018-05-04T12:02:39.883Z,9.83
2018-05-04T12:05:09.583Z,10.50
2018-05-04T12:08:02.553Z,9.87
2018-05-04T12:13:32.420Z,10.63
2018-05-04T12:16:05.468Z,9.87
2018-05-04T12:18:48.499Z,10.77
2018-05-04T12:21:28.646Z,9.43
2018-05-04T12:27:01.014Z,9.17
2018-05-04T12:29:39.505Z,9.87
2018-05-04T12:32:19.560Z,10.50
2018-05-04T12:34:47.098Z,10.00
2018-05-04T12:37:19.462Z,9.50
2018-05-04T12:39:53.692Z,9.73
2018-05-04T12:42:21.442Z,9.93
2018-05-04T12:45:05.681Z,9.97
2018-05-04T12:47:41.518Z,10.27
2018-05-04T12:50:16.050Z,10.17
2018-05-04T12:53:05.701Z,9.70
2018-05-04T12:55:37.383Z,9.47
2018-05-04T12:58:08.231Z,9.70
2018-05-04T13:00:39.035Z,8.80
2018-05-04T13:03:31.427Z,9.00
2018-05-04T13:06:11.733Z,9.97
2018-05-04T13:08:57.274Z,9.90
2018-05-04T13:11:25.716Z,8.73
2018-05-04T13:14:07.238Z,8.87
2018-05-04T13:16:38.449Z,9.70
2018-05-04T13:19:12.972Z,10.03
2018-05-04T13:21:47.467Z,8.13
2018-05-04T13:24:18.674Z,9.47
2018-05-04T13:26:46.451Z,9.23
2018-05-04T13:29:26.449Z,10.07
2018-05-04T13:31:56.073Z,9.23
2018-05-04T13:34:36.704Z,8.80
2018-05-04T13:37:05.460Z,9.10
2018-05-04T13:39:35.078Z,9.60
2018-05-04T13:42:08.360Z,9.77
2018-05-04T13:44:36.097Z,9.20
2018-05-04T13:47:03.604Z,12.27
2018-05-04T13:49:31.332Z,9.13
2018-05-04T13:52:00.621Z,9.40
2018-05-04T13:54:30.226Z,8.90
2018-05-04T13:57:02.302Z,9.57
2018-05-04T13:59:50.686Z,9.10
2018-05-04T14:02:23.342Z,9.87
2018-05-04T14:04:54.164Z,10.27
2018-05-04T14:07:35.397Z,9.53
2018-05-04T14:13:00.176Z,9.30
2018-05-04T14:15:34.653Z,9.60
2018-05-04T14:18:03.390Z,9.00
2018-05-04T14:20:32.051Z,8.60
2018-05-04T14:23:03.233Z,9.33
2018-05-04T14:25:37.101Z,9.63
2018-05-04T14:28:09.507Z,9.93
2018-05-04T14:30:37.006Z,9.30
2018-05-04T14:33:09.020Z,8.27
2018-05-04T14:35:38.606Z,8.67
2018-05-04T14:38:14.357Z,9.63
2018-05-04T14:40:51.923Z,9.70
2018-05-04T14:43:19.446Z,8.50
2018-05-04T14:45:55.146Z,7.87
2018-05-04T14:48:24.808Z,8.13
2018-05-04T14:51:00.202Z,8.60
2018-05-04T14:53:33.814Z,8.73
2018-05-04T14:56:02.525Z,8.17
2018-05-04T14:58:47.799Z,8.93
2018-05-04T15:01:18.926Z,8.50
2018-05-04T15:03:53.464Z,12.53
2018-05-04T15:06:31.942Z,7.17
2018-05-04T15:09:00.382Z,8.00
2018-05-04T15:11:30.011Z,8.10
2018-05-04T15:14:11.532Z,8.63
2018-05-04T15:16:40.238Z,7.77
2018-05-04T15:19:08.938Z,8.67
2018-05-04T15:21:38.574Z,8.20
2018-05-04T15:24:24.058Z,7.80
2018-05-04T15:26:52.530Z,8.50
2018-05-04T15:29:20.063Z,7.63
2018-05-04T15:31:47.763Z,7.90
2018-05-04T15:34:27.152Z,7.83
2018-05-04T15:37:02.306Z,7.60
2018-05-04T15:39:30.127Z,7.97
2018-05-04T15:41:59.698Z,7.63
2018-05-04T15:44:33.624Z,7.87
2018-05-04T15:47:01.967Z,7.80
2018-05-04T15:49:30.663Z,8.10
2018-05-04T15:52:06.842Z,8.10
2018-05-04T15:54:34.472Z,7.70
2018-05-04T15:57:04.075Z,7.50
2018-05-04T15:59:33.762Z,7.10
2018-05-04T16:02:02.599Z,7.30
2018-05-04T16:04:37.222Z,7.70
2018-05-04T16:07:09.010Z,7.53
2018-05-04T16:09:46.261Z,7.50
2018-05-04T16:12:33.159Z,7.63
2018-05-04T16:15:06.394Z,7.53
2018-05-04T16:17:39.957Z,6.93
2018-05-04T16:20:17.543Z,7.13
2018-05-04T16:23:01.866Z,6.97
2018-05-04T16:25:29.408Z,7.50
2018-05-04T16:27:58.200Z,7.23
2018-05-04T16:30:31.398Z,7.40
2018-05-04T16:33:02.230Z,6.63
2018-05-04T16:35:34.956Z,6.97
2018-05-04T16:38:02.650Z,7.00
2018-05-04T16:40:55.344Z,6.73
2018-05-04T16:43:29.498Z,6.60
2018-05-04T16:52:11.724Z,7.23
2018-05-04T16:54:44.818Z,6.77
2018-05-04T16:57:26.063Z,6.30
2018-05-04T17:00:11.557Z,7.10
2018-05-04T17:02:41.254Z,6.30
2018-05-04T17:05:08.764Z,6.23
2018-05-04T17:07:38.014Z,6.53
2018-05-04T17:10:06.373Z,6.80
2018-05-04T17:12:35.379Z,6.40
2018-05-04T17:15:06.603Z,6.10
2018-05-04T17:17:52.647Z,6.03
2018-05-04T17:20:21.148Z,6.70
2018-05-04T17:22:50.724Z,6.23
2018-05-04T17:25:19.384Z,6.10
2018-05-04T17:27:46.917Z,6.00
2018-05-04T17:30:14.626Z,6.27
2018-05-04T17:32:42.135Z,6.13
2018-05-04T17:35:15.074Z,6.10
2018-05-04T17:37:43.452Z,5.97
2018-05-04T17:40:17.741Z,6.10
2018-05-04T17:43:02.947Z,6.07
2018-05-04T17:45:50.115Z,6.27
2018-05-04T17:48:18.742Z,5.83
2018-05-04T17:50:56.316Z,5.43
2018-05-04T17:53:26.014Z,5.67
2018-05-04T17:55:57.114Z,5.40
2018-05-04T17:58:33.335Z,6.17
2018-05-04T18:01:02.194Z,5.53
2018-05-04T18:03:39.699Z,5.67
2018-05-04T18:06:15.515Z,5.90
2018-05-04T18:08:48.531Z,5.77
2018-05-04T18:11:16.274Z,6.23
2018-05-04T18:13:49.843Z,6.30
2018-05-04T18:16:18.093Z,6.27
2018-05-04T18:18:45.706Z,5.10
2018-05-04T18:21:19.921Z,6.10
2018-05-04T18:23:49.216Z,5.97
2018-05-04T18:26:25.290Z,6.03
2018-05-04T18:29:02.841Z,5.97
2018-05-04T18:31:35.030Z,5.80
2018-05-04T18:34:08.532Z,5.60
2018-05-04T18:36:37.835Z,5.63
2018-05-04T18:39:10.223Z,5.97
2018-05-04T18:41:38.914Z,6.17
2018-05-04T18:44:06.460Z,5.93
2018-05-04T18:46:42.080Z,6.17
2018-05-04T18:49:12.968Z,7.70
2018-05-04T18:51:41.657Z,8.83
2018-05-04T18:54:10.351Z,7.03
2018-05-04T18:56:38.119Z,6.33
2018-05-04T18:59:05.905Z,6.30
2018-05-04T19:01:37.010Z,6.50
2018-05-04T19:04:05.380Z,6.30
2018-05-04T19:06:41.078Z,6.57
2018-05-04T19:09:09.642Z,6.80
2018-05-04T19:11:38.206Z,6.23
2018-05-04T19:14:09.372Z,6.53
2018-05-04T19:16:38.092Z,6.33
2018-05-04T19:19:10.712Z,6.43
2018-05-04T19:21:41.566Z,6.43
2018-05-04T19:24:21.645Z,6.87
2018-05-04T19:26:49.419Z,6.40
2018-05-04T19:29:20.538Z,6.80
2018-05-04T19:31:51.376Z,6.80
2018-05-04T19:34:28.996Z,6.87
2018-05-04T19:37:00.091Z,6.40
2018-05-04T19:39:27.608Z,6.60
2018-05-04T19:41:56.296Z,6.50
2018-05-04T19:44:36.550Z,6.67
2018-05-04T19:47:07.774Z,7.33
2018-05-04T19:52:30.962Z,7.27
2018-05-04T19:54:58.470Z,7.60
2018-05-04T19:57:26.271Z,7.57
2018-05-04T19:59:53.906Z,7.97
2018-05-04T20:02:21.421Z,8.03
2018-05-04T20:04:53.231Z,7.47
2018-05-04T20:07:26.616Z,7.23
2018-05-04T20:09:54.183Z,7.30
2018-05-04T20:12:25.677Z,6.87
2018-05-04T20:14:54.179Z,7.50
2018-05-04T20:17:24.891Z,8.13
2018-05-04T20:20:04.588Z,7.27
2018-05-04T20:22:38.176Z,7.03
2018-05-04T20:25:05.684Z,7.50
2018-05-04T20:27:34.354Z,7.73
2018-05-04T20:30:01.864Z,8.17
2018-05-04T20:32:43.033Z,9.10
2018-05-04T20:35:11.492Z,9.07
2018-05-04T20:37:39.028Z,9.77
2018-05-04T20:40:08.572Z,10.13
2018-05-04T20:42:44.266Z,10.07
2018-05-04T20:45:14.076Z,9.67
2018-05-04T20:47:47.791Z,10.20
2018-05-04T20:50:15.594Z,10.83
2018-05-04T20:52:45.214Z,10.10
2018-05-04T20:55:14.794Z,10.00
2018-05-04T20:57:44.424Z,10.30
2018-05-04T21:00:13.151Z,10.67
2018-05-04T21:02:55.257Z,11.77
2018-05-04T21:05:33.178Z,10.80
2018-05-04T21:08:12.946Z,11.60
2018-05-04T21:10:53.221Z,12.30
2018-05-04T21:13:29.108Z,11.33
2018-05-04T21:15:56.820Z,10.90
2018-05-04T21:18:24.333Z,9.87
2018-05-04T21:20:53.910Z,9.47
2018-05-04T21:23:22.272Z,9.83
2018-05-04T21:25:54.980Z,9.50
2018-05-04T21:28:22.501Z,8.43
2018-05-04T21:30:56.924Z,8.50
2018-05-04T21:33:24.522Z,7.60
2018-05-04T21:35:52.242Z,7.90
2018-05-04T21:38:24.581Z,8.07
2018-05-04T21:40:58.746Z,7.73
2018-05-04T21:43:29.904Z,7.67
2018-05-04T21:46:05.008Z,7.93
2018-05-04T21:48:35.920Z,7.50
2018-05-04T21:51:03.679Z,7.43
2018-05-04T21:53:31.400Z,7.27
2018-05-04T21:56:02.266Z,7.20
2018-05-04T21:58:30.650Z,7.57
2018-05-04T22:01:00.298Z,7.90
2018-05-04T22:03:28.944Z,7.43
2018-05-04T22:06:07.795Z,7.67
2018-05-04T22:08:36.420Z,7.67
2018-05-04T22:11:04.156Z,7.83
2018-05-04T22:13:38.080Z,7.63
2018-05-04T22:16:11.688Z,7.93
2018-05-04T22:18:39.254Z,7.20
2018-05-04T22:21:15.206Z,7.83
2018-05-04T22:23:42.726Z,7.60
2018-05-04T22:26:10.482Z,7.57
2018-05-04T22:28:41.583Z,7.67
2018-05-04T22:31:09.082Z,8.10
2018-05-04T22:33:36.925Z,7.87
2018-05-04T22:36:04.613Z,7.57
2018-05-04T22:38:47.056Z,7.43
2018-05-04T22:41:15.794Z,7.53
2018-05-04T22:43:44.462Z,6.77
2018-05-04T22:46:15.937Z,7.47
2018-05-04T22:48:45.767Z,7.13
2018-05-04T22:51:13.311Z,7.57
2018-05-04T22:53:46.299Z,7.80
2018-05-04T22:56:14.367Z,7.77
2018-05-04T22:58:41.872Z,7.67
2018-05-04T23:01:15.759Z,7.47
2018-05-04T23:03:43.728Z,7.97
2018-05-04T23:06:12.174Z,8.60
2018-05-04T23:09:04.591Z,8.53
2018-05-04T23:11:33.592Z,8.20
2018-05-04T23:14:07.137Z,7.87
2018-05-04T23:16:36.420Z,8.17
2018-05-04T23:19:06.027Z,7.93
2018-05-04T23:21:35.642Z,8.00
2018-05-04T23:24:05.253Z,7.60
2018-05-04T23:26:36.710Z,7.57
2018-05-04T23:29:06.321Z,6.30
2018-05-04T23:31:47.593Z,7.10
2018-05-04T23:34:20.062Z,7.30
2018-05-04T23:36:47.844Z,6.40
2018-05-04T23:39:15.537Z,6.20
2018-05-04T23:41:44.750Z,6.60
2018-05-04T23:44:12.260Z,6.27
2018-05-04T23:46:40.951Z,6.47
2018-05-04T23:49:17.051Z,6.60
2018-05-04T23:51:44.762Z,6.30
2018-05-04T23:54:20.498Z,6.43
2018-05-04T23:56:49.454Z,6.43
2018-05-04T23:59:17.897Z,6.17
